Time;durP1;ratioP1;P1;durP2;ratioP2;P2;SDS_P1;SDS_P2;PMS_P1;PMS_P2;Temp;Humidity;BMP_temperature;BMP_pressure;BME280_temperature;BME280_humidity;BME280_pressure;Samples;Min_cycle;Max_cycle;Signal;HPM_P1;HPM_P2
2022/04/16 00:02:45;;;;;;;8.52;5.43;;;7.50;99.90;;;;;;4988318;28;20030;-87
2022/04/16 00:05:32;;;;;;;5.35;4.43;;;7.40;99.90;;;;;;4979687;28;20410;-89
2022/04/16 00:08:33;;;;;;;7.18;4.88;;;7.30;99.90;;;;;;4975175;28;20110;-90
2022/04/16 00:11:23;;;;;;;5.93;4.22;;;7.20;99.90;;;;;;4998392;28;20046;-88
2022/04/16 00:14:12;;;;;;;5.63;4.45;;;7.10;99.90;;;;;;4982482;28;20058;-89
2022/04/16 00:17:00;;;;;;;6.63;4.63;;;7.10;99.90;;;;;;4984897;28;20051;-86
2022/04/16 00:19:47;;;;;;;5.82;4.75;;;7.20;99.90;;;;;;4982161;28;20047;-87
2022/04/16 00:22:42;;;;;;;7.90;5.07;;;7.20;99.90;;;;;;4993229;28;20144;-90
2022/04/16 00:25:33;;;;;;;10.10;5.20;;;7.20;99.90;;;;;;4977625;28;20082;-88
2022/04/16 00:28:31;;;;;;;7.28;4.78;;;7.20;99.90;;;;;;4974514;28;20062;-87
2022/04/16 00:31:21;;;;;;;8.77;4.80;;;7.20;99.90;;;;;;4987996;28;20409;-90
2022/04/16 00:34:17;;;;;;;5.70;4.30;;;7.20;99.90;;;;;;4976801;28;20039;-88
2022/04/16 00:37:11;;;;;;;6.65;4.57;;;7.10;99.90;;;;;;4986505;28;20110;-87
2022/04/16 00:39:58;;;;;;;5.50;4.32;;;7.00;99.90;;;;;;4983377;28;20527;-88
2022/04/16 00:43:13;;;;;;;6.95;4.30;;;7.00;99.90;;;;;;4966728;28;20074;-88
2022/04/16 00:46:00;;;;;;;5.70;4.07;;;6.90;99.90;;;;;;4983275;28;20057;-89
2022/04/16 00:48:47;;;;;;;5.78;4.18;;;6.90;99.90;;;;;;4980104;28;20038;-89
2022/04/16 00:51:36;;;;;;;6.13;3.75;;;6.80;99.90;;;;;;4977000;28;20042;-87
2022/04/16 00:54:23;;;;;;;4.43;3.85;;;6.70;99.90;;;;;;4974668;28;20062;-88
2022/04/16 00:57:12;;;;;;;6.88;4.82;;;6.70;99.90;;;;;;4986372;28;20051;-88
2022/04/16 01:00:05;;;;;;;5.35;3.60;;;6.80;99.90;;;;;;4977288;28;20077;-86
2022/04/16 01:03:05;;;;;;;6.47;4.07;;;6.70;99.90;;;;;;4975110;28;20142;-89
2022/04/16 01:06:06;;;;;;;4.93;4.32;;;6.80;99.90;;;;;;4983740;28;20429;-89
2022/04/16 01:08:54;;;;;;;7.60;3.80;;;6.70;99.90;;;;;;4982957;28;22125;-86
2022/04/16 01:11:50;;;;;;;4.90;3.90;;;6.80;99.90;;;;;;4973519;28;20049;-88
2022/04/16 01:14:58;;;;;;;4.90;3.72;;;6.80;99.90;;;;;;4909512;29;20056;-85
2022/04/16 01:17:48;;;;;;;6.22;4.10;;;6.70;99.90;;;;;;4911433;29;20124;-87
2022/04/16 01:20:41;;;;;;;7.03;4.10;;;6.50;99.90;;;;;;4888550;29;20060;-88
2022/04/16 01:23:37;;;;;;;6.95;3.75;;;6.50;99.90;;;;;;4908336;29;20057;-88
2022/04/16 01:29:17;;;;;;;8.13;4.40;;;6.40;99.90;;;;;;6053523;23;20046;-80
2022/04/16 01:37:35;;;;;;;5.20;4.07;;;6.30;99.90;;;;;;5775578;22;20037;-86
2022/04/16 01:43:19;;;;;;;5.75;4.18;;;6.30;99.90;;;;;;6093306;23;20024;-83
2022/04/16 01:48:49;;;;;;;4.97;3.60;;;6.20;99.90;;;;;;5344448;22;20053;-89
2022/04/16 01:55:43;;;;;;;5.90;3.70;;;6.10;99.90;;;;;;5005892;28;20034;-89
2022/04/16 01:58:43;;;;;;;;;;;;;;;;;;;;;
2022/04/16 02:02:14;;;;;;;3.92;3.10;;;6.10;99.90;;;;;;5000781;28;20207;-88
2022/04/16 02:05:15;;;;;;;4.18;3.78;;;6.20;99.90;;;;;;5003079;28;20110;-87
2022/04/16 02:08:02;;;;;;;6.78;4.47;;;6.10;99.90;;;;;;5012767;28;20045;-89
2022/04/16 02:10:49;;;;;;;3.97;3.50;;;6.20;99.90;;;;;;5016074;28;20449;-89
2022/04/16 02:13:41;;;;;;;7.05;3.55;;;6.10;99.90;;;;;;5009446;28;20054;-88
2022/04/16 02:16:31;;;;;;;4.43;3.40;;;6.10;99.90;;;;;;5024764;28;20049;-89
2022/04/16 02:19:18;;;;;;;4.28;3.88;;;6.10;99.90;;;;;;5011496;28;20360;-87
2022/04/16 02:22:06;;;;;;;4.50;3.40;;;6.10;99.90;;;;;;5012531;28;20057;-87
2022/04/16 02:24:55;;;;;;;4.00;3.60;;;6.10;99.90;;;;;;5008297;28;20054;-88
2022/04/16 02:27:44;;;;;;;7.70;4.30;;;6.10;99.90;;;;;;5017708;28;20049;-88
2022/04/16 02:30:31;;;;;;;7.30;4.28;;;6.20;99.90;;;;;;5016459;28;20046;-87
2022/04/16 02:33:18;;;;;;;4.75;3.92;;;6.40;99.90;;;;;;5022901;28;20104;-89
2022/04/16 02:36:07;;;;;;;3.88;3.40;;;6.40;99.90;;;;;;5028007;28;20046;-86
2022/04/16 02:38:57;;;;;;;3.95;3.42;;;6.50;99.90;;;;;;5005169;28;20038;-88
2022/04/16 02:41:44;;;;;;;4.20;3.72;;;6.50;99.90;;;;;;5036965;28;20164;-91
2022/04/16 02:48:07;;;;;;;4.47;3.22;;;6.40;99.90;;;;;;5016873;28;20050;-86
2022/04/16 02:51:12;;;;;;;6.97;3.42;;;6.30;99.90;;;;;;5020057;28;20053;-86
2022/04/16 02:54:01;;;;;;;4.20;3.70;;;6.30;99.90;;;;;;5008693;28;20046;-87
2022/04/16 02:56:51;;;;;;;6.63;4.32;;;6.30;99.90;;;;;;5015908;28;20060;-90
2022/04/16 02:59:40;;;;;;;4.90;4.10;;;6.20;99.90;;;;;;5011709;28;20383;-88
2022/04/16 03:02:30;;;;;;;6.65;4.25;;;6.10;99.90;;;;;;4999087;28;20460;-86
2022/04/16 03:05:17;;;;;;;4.38;3.75;;;6.10;99.90;;;;;;5016203;28;20073;-89
2022/04/16 03:08:12;;;;;;;5.20;4.28;;;6.10;99.90;;;;;;5015735;28;20873;-86
2022/04/16 03:11:24;;;;;;;4.88;4.30;;;6.10;99.90;;;;;;5013147;28;20042;-88
2022/04/16 03:20:31;;;;;;;5.88;4.65;;;5.90;99.90;;;;;;5011807;28;20379;-89
2022/04/16 03:23:24;;;;;;;5.57;3.90;;;5.80;99.90;;;;;;5002148;28;20407;-88
2022/04/16 03:26:13;;;;;;;5.60;4.28;;;5.90;99.90;;;;;;5012846;28;20076;-88
2022/04/16 03:29:00;;;;;;;5.40;4.15;;;5.90;99.90;;;;;;5022400;28;20086;-89
2022/04/16 03:31:50;;;;;;;5.47;4.45;;;5.80;99.90;;;;;;5003562;28;20427;-88
2022/04/16 03:34:37;;;;;;;5.00;4.00;;;5.70;99.90;;;;;;5026620;28;20056;-88
2022/04/16 03:37:37;;;;;;;6.40;4.07;;;5.60;99.90;;;;;;5017131;28;21240;-87
2022/04/16 03:40:27;;;;;;;5.85;4.85;;;5.50;99.90;;;;;;5008026;28;20120;-88
2022/04/16 03:43:17;;;;;;;5.25;4.43;;;5.30;99.90;;;;;;4998614;28;20105;-88
2022/04/16 03:46:04;;;;;;;4.97;4.28;;;5.30;99.90;;;;;;5019902;28;20049;-89
2022/04/16 03:49:06;;;;;;;7.72;5.55;;;5.20;99.90;;;;;;5009606;28;20129;-89
2022/04/16 03:52:04;;;;;;;6.82;4.70;;;5.20;99.90;;;;;;5011111;28;20061;-88
2022/04/16 04:05:10;;;;;;;6.63;5.20;;;5.50;99.90;;;;;;5022058;28;20021;-89
2022/04/16 04:07:57;;;;;;;6.32;4.88;;;5.70;99.90;;;;;;5016048;28;20097;-88
2022/04/16 04:10:46;;;;;;;7.35;5.60;;;5.80;99.90;;;;;;5013172;28;20117;-89
2022/04/16 04:13:33;;;;;;;7.57;4.97;;;5.90;99.90;;;;;;5012855;28;20084;-89
2022/04/16 04:16:22;;;;;;;7.72;5.38;;;5.80;99.90;;;;;;5015090;28;20053;-90
2022/04/16 04:19:16;;;;;;;6.28;4.97;;;5.90;99.90;;;;;;5026143;28;20068;-88
2022/04/16 04:22:04;;;;;;;5.82;4.43;;;6.00;99.90;;;;;;5032411;28;20144;-88
2022/04/16 04:24:54;;;;;;;6.07;4.35;;;6.10;99.90;;;;;;5014027;28;20045;-89
2022/04/16 04:27:50;;;;;;;5.30;4.43;;;6.10;99.90;;;;;;5003881;28;20114;-91
2022/04/16 04:30:38;;;;;;;6.50;4.90;;;6.10;99.90;;;;;;4999761;28;20141;-89
2022/04/16 04:33:33;;;;;;;6.20;4.78;;;6.00;99.90;;;;;;5014916;28;20068;-88
2022/04/16 04:36:20;;;;;;;6.05;4.55;;;6.00;99.90;;;;;;5018095;28;20049;-89
2022/04/16 04:39:08;;;;;;;8.38;5.13;;;5.90;99.90;;;;;;5015622;28;20125;-88
2022/04/16 04:41:57;;;;;;;5.45;4.85;;;5.90;99.90;;;;;;5016292;28;20080;-89
2022/04/16 04:44:49;;;;;;;5.50;4.68;;;5.90;99.90;;;;;;5017493;28;20111;-88
2022/04/16 04:47:39;;;;;;;5.55;4.57;;;6.00;99.90;;;;;;5026088;28;20042;-89
2022/04/16 04:50:31;;;;;;;7.18;4.78;;;6.10;99.90;;;;;;5019059;28;20061;-87
2022/04/16 04:53:21;;;;;;;6.50;5.05;;;6.10;99.90;;;;;;5016518;28;20050;-88
2022/04/16 04:56:10;;;;;;;6.30;4.50;;;6.10;99.90;;;;;;5031115;28;20080;-89
2022/04/16 04:59:00;;;;;;;10.30;4.82;;;6.30;99.90;;;;;;5012088;28;20054;-87
2022/04/16 05:01:47;;;;;;;7.57;4.80;;;6.40;99.90;;;;;;5017066;28;20112;-88
2022/04/16 05:04:35;;;;;;;6.18;4.78;;;6.50;99.90;;;;;;5013152;28;20049;-89
2022/04/16 05:07:25;;;;;;;5.78;4.65;;;6.60;99.90;;;;;;5025492;28;20044;-89
2022/04/16 05:10:16;;;;;;;6.18;5.10;;;6.80;99.90;;;;;;5019184;28;20439;-90
2022/04/16 05:13:06;;;;;;;5.22;4.07;;;6.80;99.90;;;;;;5011854;28;20409;-90
2022/04/16 05:15:53;;;;;;;6.32;4.70;;;6.80;99.90;;;;;;5012462;28;20132;-88
2022/04/16 05:18:44;;;;;;;5.85;4.65;;;6.90;99.90;;;;;;5017337;28;20057;-90
2022/04/16 05:21:31;;;;;;;5.60;4.72;;;6.90;99.90;;;;;;5029298;28;20080;-90
2022/04/16 05:24:19;;;;;;;7.72;5.00;;;7.00;99.90;;;;;;5015489;28;20094;-88
2022/04/16 05:27:09;;;;;;;7.80;4.95;;;7.00;99.90;;;;;;5017199;28;20050;-88
2022/04/16 05:33:16;;;;;;;9.98;5.05;;;7.20;99.90;;;;;;5008055;28;20073;-89
2022/04/16 05:36:03;;;;;;;5.10;4.45;;;7.30;99.90;;;;;;5023117;28;20050;-87
2022/04/16 05:38:53;;;;;;;5.45;4.50;;;7.40;99.90;;;;;;5032229;28;20124;-87
2022/04/16 05:41:40;;;;;;;5.63;4.75;;;7.50;99.90;;;;;;5019578;28;20399;-88
2022/04/16 05:44:30;;;;;;;7.47;4.45;;;7.60;99.90;;;;;;5026411;28;20068;-90
2022/04/16 05:47:17;;;;;;;5.32;4.65;;;7.70;99.90;;;;;;5023423;28;20104;-90
2022/04/16 05:50:05;;;;;;;8.75;5.00;;;7.80;99.90;;;;;;5021682;28;20045;-91
2022/04/16 05:52:52;;;;;;;6.00;4.65;;;7.90;99.90;;;;;;5026763;28;20054;-89
2022/04/16 05:55:47;;;;;;;5.50;4.53;;;7.80;99.90;;;;;;5027888;28;20056;-90
2022/04/16 05:58:34;;;;;;;7.00;4.80;;;7.80;99.90;;;;;;5027441;28;20111;-92
2022/04/16 06:01:27;;;;;;;5.82;4.45;;;7.70;99.90;;;;;;5025267;28;20065;-87
2022/04/16 06:04:17;;;;;;;;;;;7.70;99.90;;;;;;5033263;28;20230;-88
2022/04/16 06:07:05;;;;;;;6.38;4.93;;;7.80;99.90;;;;;;5022297;28;19935;-88
2022/04/16 06:09:57;;;;;;;6.07;4.65;;;7.90;99.90;;;;;;5023652;28;20054;-87
2022/04/16 06:12:47;;;;;;;5.23;3.53;;;8.00;99.90;;;;;;5019662;28;20076;-85
2022/04/16 06:15:34;;;;;;;8.05;4.57;;;8.20;99.90;;;;;;5021436;28;20421;-88
2022/04/16 06:18:22;;;;;;;5.10;4.35;;;8.30;99.90;;;;;;5011387;28;20367;-90
2022/04/16 06:21:09;;;;;;;6.45;4.82;;;8.40;99.90;;;;;;5015848;28;20054;-90
2022/04/16 06:24:39;;;;;;;6.32;4.78;;;8.40;99.90;;;;;;5016338;28;20371;-89
2022/04/16 06:27:26;;;;;;;7.65;4.70;;;8.40;99.90;;;;;;5012597;28;20128;-89
2022/04/16 06:30:16;;;;;;;6.32;4.82;;;8.60;99.90;;;;;;5013157;28;20148;-89
2022/04/16 06:33:03;;;;;;;5.82;4.70;;;8.60;99.90;;;;;;5004535;28;20497;-90
2022/04/16 06:35:51;;;;;;;5.13;4.35;;;8.80;99.90;;;;;;5017696;28;20079;-88
2022/04/16 06:38:47;;;;;;;6.22;4.28;;;8.80;99.90;;;;;;5001535;28;20046;-90
2022/04/16 06:41:59;;;;;;;6.15;4.72;;;8.70;99.90;;;;;;5013393;28;20482;-90
2022/04/16 06:44:47;;;;;;;6.45;4.30;;;8.80;99.90;;;;;;5007954;28;20037;-88
2022/04/16 06:47:37;;;;;;;5.57;4.38;;;8.70;99.90;;;;;;5027776;28;20053;-91
2022/04/16 06:50:24;;;;;;;7.53;4.63;;;8.70;99.90;;;;;;5031524;28;20454;-87
2022/04/16 07:01:46;;;;;;;6.82;4.25;;;8.70;99.90;;;;;;4912364;29;20055;-84
2022/04/16 07:04:38;;;;;;;5.25;4.05;;;8.70;99.90;;;;;;4928555;29;20051;-83
2022/04/16 07:07:26;;;;;;;3.83;3.33;;;8.70;99.90;;;;;;5000641;28;20061;-85
2022/04/16 07:10:15;;;;;;;4.95;4.10;;;8.70;99.90;;;;;;5037092;28;20104;-85
2022/04/16 07:13:02;;;;;;;4.75;3.97;;;8.80;99.90;;;;;;5019665;28;20145;-87
2022/04/16 07:15:50;;;;;;;6.38;4.28;;;8.70;99.90;;;;;;5031239;28;20052;-87
2022/04/16 07:18:37;;;;;;;6.25;4.45;;;8.70;99.90;;;;;;5024465;28;20459;-87
2022/04/16 07:21:24;;;;;;;7.40;4.60;;;8.70;99.90;;;;;;5025043;28;20101;-86
2022/04/16 07:24:14;;;;;;;5.75;4.78;;;8.70;99.90;;;;;;5019210;28;20050;-88
2022/04/16 07:27:03;;;;;;;6.50;4.70;;;8.80;99.90;;;;;;5018518;28;20115;-86
2022/04/16 07:29:58;;;;;;;7.00;5.10;;;8.90;99.90;;;;;;5017970;28;20117;-87
2022/04/16 07:32:47;;;;;;;9.02;5.20;;;9.00;99.90;;;;;;5012920;28;20046;-90
2022/04/16 07:35:38;;;;;;;6.32;4.47;;;8.90;99.90;;;;;;5013026;28;20038;-89
2022/04/16 07:38:26;;;;;;;7.35;4.40;;;8.90;99.90;;;;;;5015621;28;20065;-87
2022/04/16 07:41:16;;;;;;;6.65;5.03;;;9.00;99.90;;;;;;5014298;28;20416;-88
2022/04/16 07:44:04;;;;;;;6.90;5.20;;;9.00;99.90;;;;;;5005677;28;20069;-87
2022/04/16 07:46:51;;;;;;;7.50;5.28;;;9.20;99.90;;;;;;5010485;28;20049;-87
2022/04/16 07:49:38;;;;;;;6.85;5.03;;;9.20;99.90;;;;;;5016615;28;20042;-87
2022/04/16 07:52:28;;;;;;;7.60;4.97;;;9.10;99.90;;;;;;5025238;28;20447;-85
2022/04/16 07:55:18;;;;;;;9.65;4.95;;;9.20;99.90;;;;;;5007499;28;20063;-86
2022/04/16 07:58:08;;;;;;;6.22;4.88;;;9.40;99.90;;;;;;5014985;28;20053;-83
2022/04/16 08:00:58;;;;;;;7.07;5.60;;;9.30;99.90;;;;;;5015837;28;20151;-87
2022/04/16 08:03:45;;;;;;;8.15;5.70;;;9.30;99.90;;;;;;5014870;28;20064;-86
2022/04/16 08:06:32;;;;;;;8.70;6.38;;;9.50;99.90;;;;;;5010851;28;20514;-83
2022/04/16 08:09:22;;;;;;;7.05;5.60;;;9.70;99.90;;;;;;5013765;28;20038;-85
2022/04/16 08:12:12;;;;;;;8.23;5.40;;;9.80;99.90;;;;;;5014520;28;20046;-86
2022/04/16 08:14:59;;;;;;;7.45;5.00;;;9.80;99.90;;;;;;5008410;28;20069;-84
2022/04/16 08:17:49;;;;;;;14.57;6.60;;;9.90;99.90;;;;;;5019334;28;20045;-84
2022/04/16 08:20:46;;;;;;;9.85;6.53;;;9.70;99.90;;;;;;5014058;28;20164;-85
2022/04/16 08:24:04;;;;;;;10.30;6.47;;;9.50;99.90;;;;;;5016627;28;20057;-86
2022/04/16 08:30:17;;;;;;;8.63;6.50;;;9.40;99.90;;;;;;5023755;28;20057;-85
2022/04/16 08:36:46;;;;;;;8.52;6.40;;;9.80;99.90;;;;;;5022295;28;20046;-86
2022/04/16 08:39:56;;;;;;;10.20;6.85;;;10.10;99.90;;;;;;5014538;28;20046;-86
2022/04/16 08:42:58;;;;;;;11.02;6.88;;;10.30;99.90;;;;;;5022176;28;20069;-82
2022/04/16 08:45:59;;;;;;;9.77;7.03;;;10.30;99.90;;;;;;5001437;28;20049;-85
2022/04/16 08:48:49;;;;;;;10.15;6.93;;;10.40;99.90;;;;;;5017188;28;20056;-83
2022/04/16 08:51:45;;;;;;;9.15;6.35;;;10.60;99.90;;;;;;5014772;28;20687;-84
2022/04/16 08:54:47;;;;;;;8.45;5.97;;;10.80;99.90;;;;;;4983641;28;20050;-84
2022/04/16 08:58:15;;;;;;;10.77;6.93;;;11.20;99.90;;;;;;4942188;29;20035;-85
2022/04/16 09:01:04;;;;;;;9.05;5.90;;;11.50;99.90;;;;;;4898281;29;20052;-84
2022/04/16 09:04:00;;;;;;;7.88;5.82;;;11.80;99.90;;;;;;4928822;28;20075;-87
2022/04/16 09:07:12;;;;;;;11.07;6.53;;;11.50;99.90;;;;;;4949499;28;20405;-84
2022/04/16 09:10:30;;;;;;;8.95;6.28;;;11.20;99.90;;;;;;4956452;28;20110;-85
2022/04/16 09:13:24;;;;;;;9.65;6.30;;;11.20;99.90;;;;;;4951325;28;20070;-84
2022/04/16 09:16:19;;;;;;;10.10;6.45;;;11.40;99.90;;;;;;4951340;29;20039;-85
2022/04/16 09:19:17;;;;;;;8.48;6.20;;;11.70;99.90;;;;;;4949637;28;20044;-86
2022/04/16 09:22:08;;;;;;;7.70;5.82;;;11.90;99.90;;;;;;4946899;29;20070;-87
2022/04/16 09:24:56;;;;;;;9.68;6.30;;;12.40;99.90;;;;;;4959462;28;20129;-85
2022/04/16 09:27:46;;;;;;;7.82;5.93;;;12.50;99.90;;;;;;5002126;28;20072;-82
2022/04/16 09:30:34;;;;;;;8.10;6.15;;;12.80;99.90;;;;;;5020323;28;20523;-84
2022/04/16 09:33:25;;;;;;;7.32;5.45;;;13.40;99.90;;;;;;5024894;28;20463;-86
2022/04/16 09:36:26;;;;;;;8.18;5.53;;;13.10;99.00;;;;;;5028638;28;20052;-86
2022/04/16 09:39:14;;;;;;;8.32;5.03;;;12.60;98.70;;;;;;5009111;28;20052;-86
2022/04/16 09:42:04;;;;;;;8.55;5.30;;;12.30;99.90;;;;;;5019652;28;20112;-86
2022/04/16 09:44:57;;;;;;;8.30;6.15;;;11.90;99.90;;;;;;5020486;28;20049;-89
2022/04/16 09:47:48;;;;;;;8.15;6.07;;;11.30;99.90;;;;;;4996452;28;20057;-87
2022/04/16 09:50:37;;;;;;;7.43;6.22;;;11.20;99.90;;;;;;5010374;28;20038;-88
2022/04/16 09:53:25;;;;;;;9.65;6.05;;;11.20;99.90;;;;;;5014685;28;20052;-87
2022/04/16 09:56:14;;;;;;;10.13;6.68;;;11.00;99.90;;;;;;5019324;28;20141;-86
2022/04/16 09:59:12;;;;;;;9.38;6.60;;;10.90;99.90;;;;;;5015394;28;20049;-86
2022/04/16 10:02:02;;;;;;;9.40;6.70;;;11.00;99.90;;;;;;5013241;28;20153;-84
2022/04/16 10:04:51;;;;;;;8.77;6.28;;;11.30;99.90;;;;;;5012574;28;20049;-85
2022/04/16 10:07:39;;;;;;;10.05;7.10;;;11.10;99.90;;;;;;5013018;28;20045;-81
2022/04/16 10:10:30;;;;;;;9.80;6.88;;;11.10;99.90;;;;;;5028696;28;20147;-85
2022/04/16 10:13:22;;;;;;;11.10;7.40;;;10.80;99.90;;;;;;5029921;28;20052;-83
2022/04/16 10:16:09;;;;;;;11.75;7.57;;;10.50;99.90;;;;;;5015996;28;20085;-83
2022/04/16 10:18:57;;;;;;;10.95;7.82;;;10.80;99.90;;;;;;5020152;28;20530;-85
2022/04/16 10:21:48;;;;;;;10.93;7.93;;;10.70;99.90;;;;;;5025722;28;20053;-83
2022/04/16 10:24:48;;;;;;;10.13;7.82;;;10.70;99.90;;;;;;5025627;28;20060;-83
2022/04/16 10:27:42;;;;;;;11.60;8.05;;;10.70;99.90;;;;;;5011558;28;20037;-83
2022/04/16 10:30:49;;;;;;;10.35;6.40;;;10.60;99.90;;;;;;5023607;28;20368;-86
2022/04/16 10:33:39;;;;;;;16.65;7.50;;;10.90;99.90;;;;;;5008781;28;20164;-84
2022/04/16 10:36:32;;;;;;;10.95;7.07;;;11.20;99.90;;;;;;5027500;28;20049;-84
2022/04/16 10:39:24;;;;;;;10.52;7.25;;;11.20;99.90;;;;;;5005138;28;20364;-86
2022/04/16 10:42:14;;;;;;;7.75;6.05;;;11.40;99.90;;;;;;5015062;28;20057;-83
2022/04/16 10:45:15;;;;;;;9.30;6.47;;;11.40;99.90;;;;;;5031155;28;20152;-86
2022/04/16 10:48:05;;;;;;;9.32;6.50;;;11.60;99.90;;;;;;5017271;28;20625;-84
2022/04/16 10:50:53;;;;;;;9.32;6.30;;;11.40;99.90;;;;;;5013326;28;20128;-83
2022/04/16 10:53:44;;;;;;;8.98;6.53;;;11.10;99.90;;;;;;5012080;28;20037;-83
2022/04/16 10:56:32;;;;;;;7.88;6.38;;;11.00;99.90;;;;;;5013666;28;20056;-85
2022/04/16 10:59:34;;;;;;;9.00;6.57;;;11.10;99.90;;;;;;5012255;28;20145;-84
2022/04/16 11:02:26;;;;;;;;;;;11.30;99.90;;;;;;5018692;28;20824;-84
2022/04/16 11:05:14;;;;;;;8.30;6.13;;;11.70;99.90;;;;;;5014422;28;19928;-86
2022/04/16 11:08:06;;;;;;;9.45;5.90;;;12.10;99.90;;;;;;5016404;28;20045;-84
2022/04/16 11:11:10;;;;;;;8.00;6.15;;;12.70;99.80;;;;;;5018260;28;20421;-85
2022/04/16 11:13:59;;;;;;;7.97;5.93;;;12.80;99.10;;;;;;5018481;28;20132;-85
2022/04/16 11:16:48;;;;;;;8.45;5.85;;;12.70;97.40;;;;;;5010820;28;20058;-84
2022/04/16 11:19:36;;;;;;;6.90;5.63;;;12.60;98.90;;;;;;5015972;28;20034;-83
2022/04/16 11:22:23;;;;;;;7.70;5.97;;;12.50;97.90;;;;;;5014657;28;20193;-86
2022/04/16 11:25:11;;;;;;;7.78;5.97;;;12.70;98.10;;;;;;5019103;28;20336;-85
2022/04/16 11:34:27;;;;;;;7.68;5.90;;;14.00;93.30;;;;;;5020567;28;20065;-83
2022/04/16 11:37:35;;;;;;;7.07;5.50;;;13.90;92.20;;;;;;5015808;28;20076;-84
2022/04/16 11:40:22;;;;;;;9.57;6.20;;;13.80;93.50;;;;;;5033325;28;20077;-82
2022/04/16 11:43:12;;;;;;;8.13;6.32;;;13.60;92.90;;;;;;5028518;28;20056;-85
2022/04/16 11:46:04;;;;;;;7.60;5.57;;;13.40;92.70;;;;;;5042846;28;20101;-84
2022/04/16 11:48:52;;;;;;;8.38;6.22;;;13.60;92.40;;;;;;5039038;28;20115;-84
2022/04/16 11:51:41;;;;;;;7.35;5.95;;;12.80;92.40;;;;;;5032243;28;20186;-85
2022/04/16 11:54:31;;;;;;;7.75;5.72;;;12.30;94.00;;;;;;5037087;28;20068;-79
2022/04/16 11:57:22;;;;;;;7.75;5.57;;;12.20;94.60;;;;;;5041691;28;20060;-84
2022/04/16 12:00:14;;;;;;;6.95;5.68;;;12.20;94.80;;;;;;5648169;23;20008;-80
2022/04/16 12:03:02;;;;;;;8.73;5.75;;;12.60;94.70;;;;;;5042332;28;20062;-82
2022/04/16 12:05:52;;;;;;;7.80;5.32;;;13.20;93.70;;;;;;5037268;28;20069;-83
2022/04/16 12:08:54;;;;;;;11.23;5.95;;;13.60;92.20;;;;;;5039903;28;20120;-85
2022/04/16 12:11:44;;;;;;;6.55;5.13;;;13.70;90.90;;;;;;5030693;28;20070;-84
2022/04/16 12:14:32;;;;;;;6.50;4.70;;;13.20;90.60;;;;;;5050166;28;20049;-86
2022/04/16 12:17:26;;;;;;;6.57;4.70;;;12.50;90.00;;;;;;5032823;28;20061;-88
2022/04/16 12:20:14;;;;;;;;;;;12.40;91.20;;;;;;5032845;28;20442;-86
2022/04/16 12:23:05;;;;;;;8.18;5.20;;;12.30;91.40;;;;;;5031946;28;19921;-86
2022/04/16 12:26:06;;;;;;;6.70;4.75;;;12.50;91.10;;;;;;5034691;28;20049;-85
2022/04/16 12:28:56;;;;;;;8.70;5.45;;;12.70;91.40;;;;;;5039945;28;20064;-86
2022/04/16 12:31:43;;;;;;;6.95;5.20;;;13.40;90.80;;;;;;5048435;28;20046;-89
2022/04/16 12:34:31;;;;;;;13.30;6.75;;;13.80;90.10;;;;;;5033940;28;20430;-85
2022/04/16 12:37:20;;;;;;;9.38;5.07;;;15.00;86.30;;;;;;5029171;28;20061;-86
2022/04/16 12:40:09;;;;;;;8.07;4.75;;;16.10;78.30;;;;;;5032299;28;20374;-86
2022/04/16 12:42:59;;;;;;;5.15;4.47;;;16.80;68.10;;;;;;5028769;28;20065;-83
2022/04/16 12:45:47;;;;;;;5.28;4.32;;;16.60;67.30;;;;;;5036970;28;20065;-85
2022/04/16 12:48:35;;;;;;;6.10;4.72;;;16.30;64.50;;;;;;5031204;28;20042;-83
2022/04/16 12:51:23;;;;;;;7.80;5.03;;;16.20;66.20;;;;;;5026735;28;20131;-88
2022/04/16 12:54:10;;;;;;;6.97;4.38;;;17.00;62.70;;;;;;5020286;28;20137;-86
2022/04/16 12:56:59;;;;;;;7.85;5.43;;;16.50;64.20;;;;;;5021267;28;20053;-82
2022/04/16 12:59:47;;;;;;;7.00;5.03;;;16.00;62.20;;;;;;5024524;28;20057;-83
2022/04/16 13:02:35;;;;;;;5.47;4.70;;;14.40;66.90;;;;;;5028212;28;20190;-86
2022/04/16 13:05:25;;;;;;;7.43;4.95;;;14.60;72.70;;;;;;5015556;28;20050;-84
2022/04/16 13:08:14;;;;;;;7.10;5.00;;;16.20;63.50;;;;;;5029620;28;20049;-88
2022/04/16 13:11:06;;;;;;;8.65;5.95;;;17.70;63.10;;;;;;5008876;28;20041;-86
2022/04/16 13:13:58;;;;;;;8.18;4.35;;;18.60;57.00;;;;;;5017863;28;20072;-81
2022/04/16 13:16:48;;;;;;;8.00;4.32;;;18.40;52.30;;;;;;5031037;28;20323;-85
2022/04/16 13:19:38;;;;;;;6.65;4.55;;;18.10;52.30;;;;;;5023411;28;20482;-88
2022/04/16 13:22:27;;;;;;;7.93;5.18;;;18.40;52.40;;;;;;5017226;28;20050;-89
2022/04/16 13:25:16;;;;;;;5.20;4.68;;;18.90;51.20;;;;;;5023033;28;20338;-85
2022/04/16 13:28:05;;;;;;;5.10;4.40;;;19.10;53.30;;;;;;5015822;28;20137;-88
2022/04/16 13:30:56;;;;;;;5.28;4.65;;;18.40;50.40;;;;;;5014347;28;20111;-84
2022/04/16 13:33:44;;;;;;;6.60;4.57;;;18.10;51.40;;;;;;5015991;28;20050;-84
2022/04/16 13:36:31;;;;;;;7.38;5.30;;;17.80;49.60;;;;;;5013360;28;20042;-86
2022/04/16 13:42:28;;;;;;;5.80;4.32;;;18.70;51.20;;;;;;4998518;28;20451;-87
2022/04/16 13:45:15;;;;;;;6.85;4.22;;;20.00;48.50;;;;;;5012810;28;20178;-89
2022/04/16 13:48:02;;;;;;;5.95;4.40;;;20.20;47.80;;;;;;5016772;28;20509;-89
2022/04/16 13:50:54;;;;;;;6.38;4.85;;;20.80;46.90;;;;;;5016367;28;20434;-87
2022/04/16 13:53:41;;;;;;;6.85;5.18;;;20.40;45.20;;;;;;5025960;28;20030;-84
2022/04/16 13:56:29;;;;;;;6.88;4.50;;;19.90;47.00;;;;;;5005676;28;20060;-83
2022/04/16 13:59:18;;;;;;;4.95;4.15;;;19.80;47.20;;;;;;5015182;28;20060;-90
2022/04/16 14:02:07;;;;;;;5.65;4.60;;;19.60;49.10;;;;;;5018099;28;20081;-89
2022/04/16 14:08:08;;;;;;;6.03;4.20;;;19.70;48.10;;;;;;5006774;28;20112;-88
2022/04/16 14:11:02;;;;;;;5.28;4.32;;;18.90;45.90;;;;;;5016749;28;20081;-89
2022/04/16 14:13:50;;;;;;;8.65;4.40;;;18.90;46.40;;;;;;5023164;28;20041;-88
2022/04/16 14:16:42;;;;;;;5.97;4.63;;;19.60;46.00;;;;;;5016789;28;20069;-85
2022/04/16 14:19:55;;;;;;;6.20;4.20;;;20.00;43.70;;;;;;5016092;28;20160;-84
2022/04/16 14:22:44;;;;;;;6.10;4.47;;;20.30;45.30;;;;;;5018187;28;20045;-88
2022/04/16 14:25:31;;;;;;;5.53;4.38;;;21.30;47.00;;;;;;5015753;28;20123;-90
2022/04/16 14:28:23;;;;;;;5.97;4.10;;;21.60;42.80;;;;;;5026911;28;20042;-85
2022/04/16 14:31:12;;;;;;;8.05;3.92;;;22.00;42.80;;;;;;5017572;28;20045;-88
2022/04/16 14:34:03;;;;;;;6.85;4.40;;;21.10;41.50;;;;;;5034393;28;20041;-84
2022/04/16 14:36:50;;;;;;;6.22;4.75;;;19.20;44.70;;;;;;5045456;28;20111;-87
2022/04/16 14:39:40;;;;;;;9.75;6.93;;;17.80;46.80;;;;;;5013340;28;20058;-85
2022/04/16 14:42:28;;;;;;;7.07;4.53;;;17.60;46.40;;;;;;5006503;28;20054;-86
2022/04/16 14:45:16;;;;;;;6.93;4.63;;;18.10;47.20;;;;;;5025911;28;20050;-87
2022/04/16 14:48:06;;;;;;;6.07;4.38;;;18.70;46.30;;;;;;5014834;28;20042;-87
2022/04/16 14:50:54;;;;;;;6.65;4.40;;;19.80;44.30;;;;;;5005443;28;20053;-84
2022/04/16 14:53:41;;;;;;;6.20;3.95;;;20.20;43.50;;;;;;5010806;28;20042;-85
2022/04/16 14:56:28;;;;;;;8.98;3.90;;;19.60;44.80;;;;;;5017222;28;20053;-87
2022/04/16 14:59:17;;;;;;;6.00;4.35;;;18.30;45.10;;;;;;4999915;28;20050;-83
2022/04/16 15:02:04;;;;;;;5.75;3.85;;;17.00;51.10;;;;;;4996453;28;20046;-84
2022/04/16 15:04:52;;;;;;;10.27;5.10;;;17.40;50.50;;;;;;5010235;28;20041;-85
2022/04/16 15:07:41;;;;;;;5.10;4.25;;;16.80;50.70;;;;;;5020862;28;20344;-82
2022/04/16 15:10:31;;;;;;;6.90;4.65;;;16.70;50.90;;;;;;5024227;28;20120;-83
2022/04/16 15:13:21;;;;;;;7.82;4.35;;;17.10;49.10;;;;;;5018305;28;20053;-84
2022/04/16 15:16:14;;;;;;;5.20;3.87;;;16.30;49.20;;;;;;5013021;28;20050;-84
2022/04/16 15:19:01;;;;;;;5.35;4.40;;;16.20;51.10;;;;;;5020250;28;20285;-84
2022/04/16 15:21:49;;;;;;;5.35;3.85;;;16.20;49.70;;;;;;5032574;28;20712;-86
2022/04/16 15:24:38;;;;;;;8.60;4.05;;;16.00;50.70;;;;;;5026603;28;20046;-83
2022/04/16 15:27:28;;;;;;;4.72;3.25;;;16.70;51.10;;;;;;5014150;28;20050;-83
2022/04/16 15:30:16;;;;;;;11.68;5.15;;;18.30;49.80;;;;;;5006230;28;20105;-81
2022/04/16 15:33:04;;;;;;;4.15;3.40;;;19.10;45.80;;;;;;5007282;28;20450;-80
2022/04/16 15:35:54;;;;;;;4.63;3.70;;;19.30;44.70;;;;;;5013959;28;20401;-82
2022/04/16 15:38:44;;;;;;;7.10;3.83;;;19.30;45.50;;;;;;5019996;28;20041;-80
2022/04/16 15:41:32;;;;;;;25.25;17.65;;;18.00;45.50;;;;;;5016399;28;20058;-81
2022/04/16 15:44:19;;;;;;;65.75;37.30;;;17.40;47.70;;;;;;5021555;28;20045;-83
2022/04/16 15:47:12;;;;;;;190.13;104.18;;;16.90;49.10;;;;;;5030348;28;20054;-82
2022/04/16 15:49:59;;;;;;;4.50;3.90;;;16.90;48.00;;;;;;5027974;28;20049;-80
2022/04/16 15:52:47;;;;;;;4.60;3.13;;;16.70;48.50;;;;;;5021099;28;20049;-82
2022/04/16 15:55:37;;;;;;;4.65;3.10;;;16.40;48.90;;;;;;5029920;28;20089;-82
2022/04/16 15:58:26;;;;;;;7.78;3.30;;;16.00;49.60;;;;;;5023033;28;20046;-82
2022/04/16 16:01:14;;;;;;;6.10;3.60;;;16.10;50.00;;;;;;5023920;28;20100;-81
2022/04/16 16:04:03;;;;;;;4.88;2.92;;;16.20;49.90;;;;;;5010997;28;20038;-78
2022/04/16 16:06:53;;;;;;;5.90;2.92;;;16.40;49.20;;;;;;5016027;28;20030;-81
2022/04/16 16:09:43;;;;;;;6.70;3.50;;;16.00;49.30;;;;;;5015723;28;20045;-79